sensor_id;sensor_type;location;lat;lon;timestamp;pressure;altitude;pressure_sealevel;temperature;humidity
56821;BME280;42702;50.178;20.992;2022-07-18T00:02:09;100202.52;;;15.07;58.59
56821;BME280;42702;50.178;20.992;2022-07-18T00:04:38;100207.27;;;15.06;58.48
56821;BME280;42702;50.178;20.992;2022-07-18T00:07:06;100208.88;;;15.02;58.59
56821;BME280;42702;50.178;20.992;2022-07-18T00:09:34;100211.18;;;15.00;58.61
56821;BME280;42702;50.178;20.992;2022-07-18T00:12:04;100211.37;;;14.98;58.63
56821;BME280;42702;50.178;20.992;2022-07-18T00:14:34;100212.25;;;14.98;58.66
56821;BME280;42702;50.178;20.992;2022-07-18T00:17:04;100211.73;;;14.98;58.71
56821;BME280;42702;50.178;20.992;2022-07-18T00:19:33;100213.32;;;14.96;58.85
56821;BME280;42702;50.178;20.992;2022-07-18T00:22:02;100216.68;;;14.93;58.83
56821;BME280;42702;50.178;20.992;2022-07-18T00:24:31;100218.09;;;14.92;58.99
56821;BME280;42702;50.178;20.992;2022-07-18T00:27:00;100214.95;;;14.92;59.12
56821;BME280;42702;50.178;20.992;2022-07-18T00:29:28;100217.94;;;14.91;59.17
56821;BME280;42702;50.178;20.992;2022-07-18T00:31:57;100219.70;;;14.89;59.26
56821;BME280;42702;50.178;20.992;2022-07-18T00:34:25;100221.83;;;14.88;59.28
56821;BME280;42702;50.178;20.992;2022-07-18T00:36:53;100219.36;;;14.86;59.23
56821;BME280;42702;50.178;20.992;2022-07-18T00:39:21;100218.66;;;14.85;59.30
56821;BME280;42702;50.178;20.992;2022-07-18T00:41:49;100219.57;;;14.84;59.39
56821;BME280;42702;50.178;20.992;2022-07-18T00:44:23;100218.71;;;14.81;59.49
56821;BME280;42702;50.178;20.992;2022-07-18T00:46:54;100221.35;;;14.81;59.55
56821;BME280;42702;50.178;20.992;2022-07-18T00:49:23;100220.48;;;14.79;59.62
56821;BME280;42702;50.178;20.992;2022-07-18T00:51:52;100221.02;;;14.78;59.62
56821;BME280;42702;50.178;20.992;2022-07-18T00:54:20;100219.79;;;14.77;59.71
56821;BME280;42702;50.178;20.992;2022-07-18T00:56:49;100219.40;;;14.81;59.70
56821;BME280;42702;50.178;20.992;2022-07-18T00:59:18;100223.96;;;14.83;59.70
56821;BME280;42702;50.178;20.992;2022-07-18T01:01:47;100227.30;;;14.81;59.87
56821;BME280;42702;50.178;20.992;2022-07-18T01:04:21;100221.52;;;14.81;60.06
56821;BME280;42702;50.178;20.992;2022-07-18T01:06:51;100218.55;;;14.80;60.06
56821;BME280;42702;50.178;20.992;2022-07-18T01:09:19;100220.30;;;14.80;60.02
56821;BME280;42702;50.178;20.992;2022-07-18T01:11:48;100222.77;;;14.79;59.98
56821;BME280;42702;50.178;20.992;2022-07-18T01:14:16;100221.89;;;14.78;60.15
56821;BME280;42702;50.178;20.992;2022-07-18T01:16:44;100219.64;;;14.76;60.07
56821;BME280;42702;50.178;20.992;2022-07-18T01:19:13;100217.70;;;14.77;59.98
56821;BME280;42702;50.178;20.992;2022-07-18T01:21:41;100216.84;;;14.75;60.06
56821;BME280;42702;50.178;20.992;2022-07-18T01:24:09;100219.84;;;14.72;60.12
56821;BME280;42702;50.178;20.992;2022-07-18T01:26:37;100217.94;;;14.67;60.12
56821;BME280;42702;50.178;20.992;2022-07-18T01:29:07;100224.13;;;14.60;60.24
56821;BME280;42702;50.178;20.992;2022-07-18T01:31:35;100226.95;;;14.54;60.37
56821;BME280;42702;50.178;20.992;2022-07-18T01:34:03;100226.11;;;14.49;60.33
56821;BME280;42702;50.178;20.992;2022-07-18T01:36:31;100215.77;;;14.46;60.39
56821;BME280;42702;50.178;20.992;2022-07-18T01:39:00;100215.46;;;14.41;60.61
56821;BME280;42702;50.178;20.992;2022-07-18T01:41:28;100214.94;;;14.38;60.53
56821;BME280;42702;50.178;20.992;2022-07-18T01:43:56;100214.29;;;14.33;60.61
56821;BME280;42702;50.178;20.992;2022-07-18T01:46:25;100213.06;;;14.30;60.59
56821;BME280;42702;50.178;20.992;2022-07-18T01:48:53;100212.20;;;14.27;60.74
56821;BME280;42702;50.178;20.992;2022-07-18T01:51:21;100208.89;;;14.24;60.96
56821;BME280;42702;50.178;20.992;2022-07-18T01:53:57;100209.08;;;14.22;60.84
56821;BME280;42702;50.178;20.992;2022-07-18T01:56:29;100203.48;;;14.20;60.99
56821;BME280;42702;50.178;20.992;2022-07-18T01:58:57;100199.59;;;14.25;60.87
56821;BME280;42702;50.178;20.992;2022-07-18T02:01:25;100198.17;;;14.28;61.02
56821;BME280;42702;50.178;20.992;2022-07-18T02:03:54;100196.26;;;14.25;61.02
56821;BME280;42702;50.178;20.992;2022-07-18T02:06:22;100192.94;;;14.24;61.08
56821;BME280;42702;50.178;20.992;2022-07-18T02:08:50;100193.98;;;14.25;61.10
56821;BME280;42702;50.178;20.992;2022-07-18T02:11:18;100191.70;;;14.24;61.25
56821;BME280;42702;50.178;20.992;2022-07-18T02:13:46;100190.66;;;14.22;61.24
56821;BME280;42702;50.178;20.992;2022-07-18T02:16:15;100195.06;;;14.21;61.21
56821;BME280;42702;50.178;20.992;2022-07-18T02:18:44;100192.44;;;14.19;61.20
56821;BME280;42702;50.178;20.992;2022-07-18T02:21:12;100191.39;;;14.19;61.27
56821;BME280;42702;50.178;20.992;2022-07-18T02:23:42;100189.30;;;14.18;61.25
56821;BME280;42702;50.178;20.992;2022-07-18T02:26:11;100191.05;;;14.16;61.36
56821;BME280;42702;50.178;20.992;2022-07-18T02:28:39;100189.66;;;14.13;61.18
56821;BME280;42702;50.178;20.992;2022-07-18T02:31:07;100193.02;;;14.11;61.27
56821;BME280;42702;50.178;20.992;2022-07-18T02:33:36;100191.43;;;14.10;61.52
56821;BME280;42702;50.178;20.992;2022-07-18T02:36:04;100190.40;;;14.09;61.48
56821;BME280;42702;50.178;20.992;2022-07-18T02:38:33;100192.86;;;14.07;61.54
56821;BME280;42702;50.178;20.992;2022-07-18T02:41:01;100193.91;;;14.06;61.77
56821;BME280;42702;50.178;20.992;2022-07-18T02:43:29;100192.01;;;14.03;61.75
56821;BME280;42702;50.178;20.992;2022-07-18T02:45:57;100189.04;;;14.00;61.78
56821;BME280;42702;50.178;20.992;2022-07-18T02:48:26;100184.80;;;14.05;61.73
56821;BME280;42702;50.178;20.992;2022-07-18T02:50:54;100187.08;;;14.05;61.81
56821;BME280;42702;50.178;20.992;2022-07-18T02:53:23;100187.62;;;14.06;61.90
56821;BME280;42702;50.178;20.992;2022-07-18T02:55:51;100183.40;;;14.07;61.87
56821;BME280;42702;50.178;20.992;2022-07-18T02:58:19;100184.96;;;14.09;62.10
56821;BME280;42702;50.178;20.992;2022-07-18T03:00:48;100185.50;;;14.07;62.00
56821;BME280;42702;50.178;20.992;2022-07-18T03:03:16;100188.13;;;14.06;61.96
56821;BME280;42702;50.178;20.992;2022-07-18T03:05:44;100190.95;;;14.03;61.84
56821;BME280;42702;50.178;20.992;2022-07-18T03:08:12;100192.38;;;13.98;62.14
56821;BME280;42702;50.178;20.992;2022-07-18T03:10:41;100196.59;;;13.95;61.97
56821;BME280;42702;50.178;20.992;2022-07-18T03:13:09;100197.67;;;13.91;62.20
56821;BME280;42702;50.178;20.992;2022-07-18T03:15:39;100199.98;;;13.85;62.14
56821;BME280;42702;50.178;20.992;2022-07-18T03:18:07;100201.56;;;13.82;62.43
56821;BME280;42702;50.178;20.992;2022-07-18T03:20:35;100201.74;;;13.83;62.51
56821;BME280;42702;50.178;20.992;2022-07-18T03:23:08;100203.14;;;13.82;62.55
56821;BME280;42702;50.178;20.992;2022-07-18T03:25:36;100204.73;;;13.80;62.59
56821;BME280;42702;50.178;20.992;2022-07-18T03:28:04;100208.41;;;13.79;62.51
56821;BME280;42702;50.178;20.992;2022-07-18T03:30:32;100206.66;;;13.79;62.46
56821;BME280;42702;50.178;20.992;2022-07-18T03:33:01;100214.34;;;13.82;62.44
56821;BME280;42702;50.178;20.992;2022-07-18T03:35:33;100212.07;;;13.84;62.40
56821;BME280;42702;50.178;20.992;2022-07-18T03:38:02;100214.17;;;13.84;62.61
56821;BME280;42702;50.178;20.992;2022-07-18T03:40:30;100215.05;;;13.82;62.93
56821;BME280;42702;50.178;20.992;2022-07-18T03:42:59;100214.00;;;13.81;62.73
56821;BME280;42702;50.178;20.992;2022-07-18T03:45:27;100214.38;;;13.77;63.00
56821;BME280;42702;50.178;20.992;2022-07-18T03:47:55;100215.42;;;13.75;63.08
56821;BME280;42702;50.178;20.992;2022-07-18T03:50:23;100219.64;;;13.74;62.94
56821;BME280;42702;50.178;20.992;2022-07-18T03:52:52;100221.39;;;13.73;63.04
56821;BME280;42702;50.178;20.992;2022-07-18T03:55:20;100225.08;;;13.72;62.99
56821;BME280;42702;50.178;20.992;2022-07-18T03:57:49;100228.23;;;13.71;62.97
56821;BME280;42702;50.178;20.992;2022-07-18T04:00:17;100230.69;;;13.72;63.22
56821;BME280;42702;50.178;20.992;2022-07-18T04:02:47;100231.02;;;13.72;63.16
56821;BME280;42702;50.178;20.992;2022-07-18T04:05:16;100233.30;;;13.77;63.32
56821;BME280;42702;50.178;20.992;2022-07-18T04:07:45;100232.90;;;13.88;63.24
56821;BME280;42702;50.178;20.992;2022-07-18T04:10:13;100239.89;;;13.97;63.21
56821;BME280;42702;50.178;20.992;2022-07-18T04:12:52;100242.66;;;14.02;63.38
56821;BME280;42702;50.178;20.992;2022-07-18T04:15:22;100237.73;;;14.10;63.39
56821;BME280;42702;50.178;20.992;2022-07-18T04:17:51;100235.95;;;14.15;63.22
56821;BME280;42702;50.178;20.992;2022-07-18T04:20:20;100236.97;;;14.20;63.19
56821;BME280;42702;50.178;20.992;2022-07-18T04:22:54;100238.89;;;14.20;63.19
56821;BME280;42702;50.178;20.992;2022-07-18T04:25:25;100238.88;;;14.24;63.30
56821;BME280;42702;50.178;20.992;2022-07-18T04:27:55;100235.70;;;14.28;63.23
56821;BME280;42702;50.178;20.992;2022-07-18T04:30:25;100236.21;;;14.31;63.24
56821;BME280;42702;50.178;20.992;2022-07-18T04:32:54;100238.83;;;14.35;63.16
56821;BME280;42702;50.178;20.992;2022-07-18T04:35:23;100237.73;;;14.38;63.22
56821;BME280;42702;50.178;20.992;2022-07-18T04:37:52;100239.14;;;14.39;63.08
56821;BME280;42702;50.178;20.992;2022-07-18T04:40:20;100244.58;;;14.39;63.13
56821;BME280;42702;50.178;20.992;2022-07-18T04:42:49;100246.51;;;14.41;63.13
56821;BME280;42702;50.178;20.992;2022-07-18T04:45:17;100244.91;;;14.43;63.16
56821;BME280;42702;50.178;20.992;2022-07-18T04:47:51;100245.75;;;14.49;62.90
56821;BME280;42702;50.178;20.992;2022-07-18T04:50:20;100248.18;;;14.52;63.07
56821;BME280;42702;50.178;20.992;2022-07-18T04:52:50;100247.48;;;14.54;63.14
56821;BME280;42702;50.178;20.992;2022-07-18T04:55:21;100250.98;;;14.57;63.17
56821;BME280;42702;50.178;20.992;2022-07-18T04:57:52;100252.36;;;14.62;63.27
56821;BME280;42702;50.178;20.992;2022-07-18T05:00:23;100251.82;;;14.64;63.11
56821;BME280;42702;50.178;20.992;2022-07-18T05:02:54;100252.35;;;14.64;63.19
56821;BME280;42702;50.178;20.992;2022-07-18T05:05:26;100257.40;;;14.70;63.15
56821;BME280;42702;50.178;20.992;2022-07-18T05:08:03;100256.69;;;14.73;63.09
56821;BME280;42702;50.178;20.992;2022-07-18T05:10:32;100257.89;;;14.75;63.05
56821;BME280;42702;50.178;20.992;2022-07-18T05:13:01;100254.90;;;14.76;63.02
56821;BME280;42702;50.178;20.992;2022-07-18T05:17:58;100250.66;;;14.80;63.00
56821;BME280;42702;50.178;20.992;2022-07-18T05:20:49;100251.69;;;14.85;63.16
56821;BME280;42702;50.178;20.992;2022-07-18T05:23:18;100247.39;;;14.94;62.84
56821;BME280;42702;50.178;20.992;2022-07-18T05:25:46;100249.64;;;14.99;62.76
56821;BME280;42702;50.178;20.992;2022-07-18T05:28:14;100245.73;;;15.05;62.76
56821;BME280;42702;50.178;20.992;2022-07-18T05:30:42;100243.23;;;15.10;62.75
56821;BME280;42702;50.178;20.992;2022-07-18T05:33:10;100237.73;;;15.16;62.70
56821;BME280;42702;50.178;20.992;2022-07-18T05:35:39;100232.94;;;15.21;62.41
56821;BME280;42702;50.178;20.992;2022-07-18T05:38:07;100234.48;;;15.25;62.49
56821;BME280;42702;50.178;20.992;2022-07-18T05:40:35;100230.06;;;15.29;62.58
56821;BME280;42702;50.178;20.992;2022-07-18T05:43:03;100231.23;;;15.34;62.60
56821;BME280;42702;50.178;20.992;2022-07-18T05:45:32;100229.60;;;15.39;62.24
56821;BME280;42702;50.178;20.992;2022-07-18T05:48:00;100233.08;;;15.43;62.10
56821;BME280;42702;50.178;20.992;2022-07-18T05:50:28;100231.98;;;15.46;62.07
56821;BME280;42702;50.178;20.992;2022-07-18T05:52:57;100232.64;;;15.52;62.10
56821;BME280;42702;50.178;20.992;2022-07-18T05:55:25;100233.80;;;15.58;62.16
56821;BME280;42702;50.178;20.992;2022-07-18T05:57:53;100226.88;;;15.65;62.11
56821;BME280;42702;50.178;20.992;2022-07-18T06:00:21;100228.23;;;15.69;61.90
56821;BME280;42702;50.178;20.992;2022-07-18T06:02:50;100224.33;;;15.74;61.91
56821;BME280;42702;50.178;20.992;2022-07-18T06:05:18;100227.44;;;15.79;61.80
56821;BME280;42702;50.178;20.992;2022-07-18T06:07:53;100224.20;;;15.85;61.69
56821;BME280;42702;50.178;20.992;2022-07-18T06:10:22;100225.90;;;15.89;61.58
56821;BME280;42702;50.178;20.992;2022-07-18T06:12:51;100229.21;;;15.93;61.37
56821;BME280;42702;50.178;20.992;2022-07-18T06:15:19;100228.82;;;15.95;61.14
56821;BME280;42702;50.178;20.992;2022-07-18T06:17:48;100231.44;;;15.97;61.03
56821;BME280;42702;50.178;20.992;2022-07-18T06:20:17;100230.53;;;15.99;60.99
56821;BME280;42702;50.178;20.992;2022-07-18T06:22:45;100231.02;;;16.02;61.15
56821;BME280;42702;50.178;20.992;2022-07-18T06:25:13;100231.70;;;16.05;61.08
56821;BME280;42702;50.178;20.992;2022-07-18T06:27:42;100233.09;;;16.06;60.97
56821;BME280;42702;50.178;20.992;2022-07-18T06:30:11;100240.98;;;16.08;60.85
56821;BME280;42702;50.178;20.992;2022-07-18T06:32:40;100240.77;;;16.10;60.96
56821;BME280;42702;50.178;20.992;2022-07-18T06:35:09;100236.87;;;16.13;60.88
56821;BME280;42702;50.178;20.992;2022-07-18T06:37:37;100239.61;;;16.18;61.02
56821;BME280;42702;50.178;20.992;2022-07-18T06:40:06;100233.52;;;16.27;60.98
56821;BME280;42702;50.178;20.992;2022-07-18T06:42:35;100232.89;;;16.35;61.14
56821;BME280;42702;50.178;20.992;2022-07-18T06:45:06;100234.55;;;16.41;61.16
56821;BME280;42702;50.178;20.992;2022-07-18T06:47:40;100230.89;;;16.50;61.01
56821;BME280;42702;50.178;20.992;2022-07-18T06:50:11;100231.48;;;16.59;60.88
56821;BME280;42702;50.178;20.992;2022-07-18T06:52:41;100226.63;;;16.65;60.58
56821;BME280;42702;50.178;20.992;2022-07-18T06:55:11;100229.39;;;16.69;60.39
56821;BME280;42702;50.178;20.992;2022-07-18T06:57:40;100227.36;;;16.75;60.27
56821;BME280;42702;50.178;20.992;2022-07-18T07:00:11;100224.27;;;16.80;59.79
56821;BME280;42702;50.178;20.992;2022-07-18T07:02:41;100225.63;;;16.86;59.58
56821;BME280;42702;50.178;20.992;2022-07-18T07:05:10;100226.80;;;16.89;59.38
56821;BME280;42702;50.178;20.992;2022-07-18T07:07:39;100225.16;;;16.94;59.24
56821;BME280;42702;50.178;20.992;2022-07-18T07:10:16;100222.77;;;16.99;59.29
56821;BME280;42702;50.178;20.992;2022-07-18T07:12:48;100224.42;;;17.05;59.34
56821;BME280;42702;50.178;20.992;2022-07-18T07:15:20;100224.50;;;17.11;59.28
56821;BME280;42702;50.178;20.992;2022-07-18T07:17:51;100223.36;;;17.16;59.12
56821;BME280;42702;50.178;20.992;2022-07-18T07:20:19;100223.44;;;17.21;59.15
56821;BME280;42702;50.178;20.992;2022-07-18T07:22:52;100220.70;;;17.27;59.09
56821;BME280;42702;50.178;20.992;2022-07-18T07:25:22;100223.94;;;17.33;58.86
56821;BME280;42702;50.178;20.992;2022-07-18T07:27:53;100223.11;;;17.40;58.49
56821;BME280;42702;50.178;20.992;2022-07-18T07:30:21;100224.43;;;17.45;58.48
56821;BME280;42702;50.178;20.992;2022-07-18T07:32:50;100219.89;;;17.51;58.67
56821;BME280;42702;50.178;20.992;2022-07-18T07:35:19;100220.12;;;17.58;58.60
56821;BME280;42702;50.178;20.992;2022-07-18T07:37:51;100218.55;;;17.65;58.67
56821;BME280;42702;50.178;20.992;2022-07-18T07:40:20;100217.92;;;17.71;58.35
56821;BME280;42702;50.178;20.992;2022-07-18T07:42:48;100222.45;;;17.74;58.09
56821;BME280;42702;50.178;20.992;2022-07-18T07:45:18;100222.58;;;17.77;57.61
56821;BME280;42702;50.178;20.992;2022-07-18T07:47:46;100222.52;;;17.79;57.37
56821;BME280;42702;50.178;20.992;2022-07-18T07:50:14;100225.64;;;17.82;57.36
56821;BME280;42702;50.178;20.992;2022-07-18T07:52:43;100223.84;;;17.86;57.44
56821;BME280;42702;50.178;20.992;2022-07-18T07:55:11;100223.91;;;17.90;57.17
56821;BME280;42702;50.178;20.992;2022-07-18T07:57:39;100221.87;;;17.96;56.82
56821;BME280;42702;50.178;20.992;2022-07-18T08:00:08;100221.92;;;18.02;56.81
56821;BME280;42702;50.178;20.992;2022-07-18T08:02:58;100218.45;;;18.07;56.87
56821;BME280;42702;50.178;20.992;2022-07-18T08:05:28;100217.63;;;18.13;56.06
56821;BME280;42702;50.178;20.992;2022-07-18T08:07:58;100215.20;;;18.18;56.05
56821;BME280;42702;50.178;20.992;2022-07-18T08:10:27;100220.18;;;18.24;55.69
56821;BME280;42702;50.178;20.992;2022-07-18T08:12:56;100220.08;;;18.30;55.76
56821;BME280;42702;50.178;20.992;2022-07-18T08:15:25;100220.84;;;18.35;55.87
56821;BME280;42702;50.178;20.992;2022-07-18T08:17:54;100216.86;;;18.39;56.00
56821;BME280;42702;50.178;20.992;2022-07-18T08:20:24;100213.51;;;18.47;55.70
56821;BME280;42702;50.178;20.992;2022-07-18T08:23:03;100213.52;;;18.54;55.29
56821;BME280;42702;50.178;20.992;2022-07-18T08:25:34;100211.58;;;18.61;55.24
56821;BME280;42702;50.178;20.992;2022-07-18T08:28:04;100210.48;;;18.71;55.01
56821;BME280;42702;50.178;20.992;2022-07-18T08:30:33;100207.30;;;18.78;53.91
56821;BME280;42702;50.178;20.992;2022-07-18T08:33:02;100205.58;;;18.85;53.77
56821;BME280;42702;50.178;20.992;2022-07-18T08:35:31;100207.90;;;18.91;52.68
56821;BME280;42702;50.178;20.992;2022-07-18T08:38:01;100203.80;;;18.99;52.86
56821;BME280;42702;50.178;20.992;2022-07-18T08:40:30;100199.91;;;19.06;52.50
56821;BME280;42702;50.178;20.992;2022-07-18T08:42:58;100198.50;;;19.13;52.11
56821;BME280;42702;50.178;20.992;2022-07-18T08:45:47;100199.71;;;19.20;51.32
56821;BME280;42702;50.178;20.992;2022-07-18T08:48:16;100198.71;;;19.25;51.32
56821;BME280;42702;50.178;20.992;2022-07-18T08:50:46;100196.02;;;19.33;51.36
56821;BME280;42702;50.178;20.992;2022-07-18T08:53:16;100191.64;;;19.38;50.86
56821;BME280;42702;50.178;20.992;2022-07-18T08:55:45;100190.58;;;19.45;50.27
56821;BME280;42702;50.178;20.992;2022-07-18T08:58:14;100190.05;;;19.51;50.75
56821;BME280;42702;50.178;20.992;2022-07-18T09:01:06;100187.67;;;19.60;49.45
56821;BME280;42702;50.178;20.992;2022-07-18T09:03:35;100186.83;;;19.66;49.21
56821;BME280;42702;50.178;20.992;2022-07-18T09:08:32;100185.80;;;19.77;49.13
56821;BME280;42702;50.178;20.992;2022-07-18T09:11:03;100185.98;;;19.83;48.37
56821;BME280;42702;50.178;20.992;2022-07-18T09:16:14;100182.00;;;19.92;49.26
56821;BME280;42702;50.178;20.992;2022-07-18T09:18:44;100184.08;;;20.00;48.94
56821;BME280;42702;50.178;20.992;2022-07-18T09:21:18;100179.04;;;20.09;48.87
56821;BME280;42702;50.178;20.992;2022-07-18T09:23:50;100180.66;;;20.20;48.05
56821;BME280;42702;50.178;20.992;2022-07-18T09:29:06;100173.06;;;20.36;47.92
56821;BME280;42702;50.178;20.992;2022-07-18T09:31:54;100172.55;;;20.46;47.73
56821;BME280;42702;50.178;20.992;2022-07-18T09:34:37;100171.76;;;20.55;47.21
56821;BME280;42702;50.178;20.992;2022-07-18T09:37:10;100169.41;;;20.62;46.78
56821;BME280;42702;50.178;20.992;2022-07-18T09:39:40;100163.30;;;20.70;46.39
56821;BME280;42702;50.178;20.992;2022-07-18T09:42:16;100170.13;;;20.78;46.56
56821;BME280;42702;50.178;20.992;2022-07-18T09:44:58;100169.10;;;20.88;46.37
56821;BME280;42702;50.178;20.992;2022-07-18T09:47:27;100173.52;;;20.98;46.72
56821;BME280;42702;50.178;20.992;2022-07-18T09:49:55;100172.53;;;21.06;46.28
56821;BME280;42702;50.178;20.992;2022-07-18T09:52:24;100165.80;;;21.16;45.87
56821;BME280;42702;50.178;20.992;2022-07-18T09:55:03;100170.46;;;21.30;46.00
56821;BME280;42702;50.178;20.992;2022-07-18T09:57:33;100170.98;;;21.41;45.11
56821;BME280;42702;50.178;20.992;2022-07-18T10:00:03;100179.55;;;21.50;45.22
56821;BME280;42702;50.178;20.992;2022-07-18T10:02:39;100173.16;;;21.59;44.64
56821;BME280;42702;50.178;20.992;2022-07-18T10:05:08;100164.44;;;21.70;44.65
56821;BME280;42702;50.178;20.992;2022-07-18T10:07:37;100168.54;;;21.79;44.31
56821;BME280;42702;50.178;20.992;2022-07-18T10:10:08;100166.52;;;21.91;43.50
56821;BME280;42702;50.178;20.992;2022-07-18T10:12:36;100162.65;;;21.98;42.89
56821;BME280;42702;50.178;20.992;2022-07-18T10:15:06;100157.76;;;22.06;43.46
56821;BME280;42702;50.178;20.992;2022-07-18T10:17:34;100157.80;;;22.18;43.21
56821;BME280;42702;50.178;20.992;2022-07-18T10:20:08;100153.39;;;22.31;43.41
56821;BME280;42702;50.178;20.992;2022-07-18T10:22:39;100152.69;;;22.45;42.63
56821;BME280;42702;50.178;20.992;2022-07-18T10:25:12;100153.08;;;22.57;42.59
56821;BME280;42702;50.178;20.992;2022-07-18T10:27:48;100153.55;;;22.67;42.02
56821;BME280;42702;50.178;20.992;2022-07-18T10:30:17;100156.80;;;22.78;42.30
56821;BME280;42702;50.178;20.992;2022-07-18T10:32:56;100153.66;;;22.94;42.01
56821;BME280;42702;50.178;20.992;2022-07-18T10:38:34;100154.86;;;23.16;41.13
56821;BME280;42702;50.178;20.992;2022-07-18T10:41:11;100153.96;;;23.24;41.16
56821;BME280;42702;50.178;20.992;2022-07-18T10:43:42;100153.14;;;23.35;40.80
56821;BME280;42702;50.178;20.992;2022-07-18T10:46:12;100152.92;;;23.44;40.09
56821;BME280;42702;50.178;20.992;2022-07-18T10:58:56;100140.15;;;23.86;39.29
56821;BME280;42702;50.178;20.992;2022-07-18T11:01:25;100139.91;;;23.92;39.26
56821;BME280;42702;50.178;20.992;2022-07-18T11:09:43;100125.63;;;24.11;38.80
56821;BME280;42702;50.178;20.992;2022-07-18T11:12:22;100126.73;;;24.19;38.46
56821;BME280;42702;50.178;20.992;2022-07-18T11:17:54;100126.00;;;24.33;38.49
56821;BME280;42702;50.178;20.992;2022-07-18T11:20:40;100121.98;;;24.35;36.42
56821;BME280;42702;50.178;20.992;2022-07-18T11:23:21;100113.00;;;24.22;37.02
56821;BME280;42702;50.178;20.992;2022-07-18T11:25:52;100108.37;;;24.29;38.12
56821;BME280;42702;50.178;20.992;2022-07-18T11:28:26;100109.65;;;24.39;38.26
56821;BME280;42702;50.178;20.992;2022-07-18T11:31:13;100100.77;;;24.50;37.84
56821;BME280;42702;50.178;20.992;2022-07-18T11:33:45;100101.36;;;24.60;37.41
56821;BME280;42702;50.178;20.992;2022-07-18T11:36:16;100101.05;;;24.65;36.48
56821;BME280;42702;50.178;20.992;2022-07-18T11:41:17;100100.46;;;24.67;36.04
56821;BME280;42702;50.178;20.992;2022-07-18T11:43:47;100102.85;;;24.62;36.08
56821;BME280;42702;50.178;20.992;2022-07-18T11:46:19;100097.11;;;24.63;37.01
56821;BME280;42702;50.178;20.992;2022-07-18T11:49:01;100091.07;;;24.69;36.32
56821;BME280;42702;50.178;20.992;2022-07-18T11:51:39;100091.10;;;24.69;36.27
56821;BME280;42702;50.178;20.992;2022-07-18T11:54:09;100082.89;;;24.76;36.66
56821;BME280;42702;50.178;20.992;2022-07-18T11:56:49;100083.59;;;24.89;37.10
56821;BME280;42702;50.178;20.992;2022-07-18T11:59:18;100080.45;;;25.02;36.30
56821;BME280;42702;50.178;20.992;2022-07-18T12:01:47;100078.02;;;25.07;35.95
56821;BME280;42702;50.178;20.992;2022-07-18T12:04:24;100080.63;;;25.09;35.59
56821;BME280;42702;50.178;20.992;2022-07-18T12:07:15;100084.64;;;25.17;36.19
56821;BME280;42702;50.178;20.992;2022-07-18T12:09:48;100080.23;;;25.31;36.06
56821;BME280;42702;50.178;20.992;2022-07-18T12:12:19;100076.30;;;25.40;36.11
56821;BME280;42702;50.178;20.992;2022-07-18T12:15:00;100076.25;;;25.54;36.22
56821;BME280;42702;50.178;20.992;2022-07-18T12:17:30;100079.41;;;25.65;35.99
56821;BME280;42702;50.178;20.992;2022-07-18T12:23:06;100075.98;;;25.59;34.44
56821;BME280;42702;50.178;20.992;2022-07-18T12:25:42;100071.72;;;25.66;35.24
56821;BME280;42702;50.178;20.992;2022-07-18T12:28:16;100074.61;;;25.78;35.81
56821;BME280;42702;50.178;20.992;2022-07-18T12:30:45;100069.64;;;25.86;34.48
56821;BME280;42702;50.178;20.992;2022-07-18T12:33:14;100071.19;;;25.88;35.16
56821;BME280;42702;50.178;20.992;2022-07-18T12:35:42;100069.39;;;25.88;34.33
56821;BME280;42702;50.178;20.992;2022-07-18T12:38:16;100069.52;;;25.73;34.28
56821;BME280;42702;50.178;20.992;2022-07-18T12:40:54;100072.27;;;25.65;34.19
56821;BME280;42702;50.178;20.992;2022-07-18T12:43:26;100069.61;;;25.65;35.16
56821;BME280;42702;50.178;20.992;2022-07-18T12:45:55;100066.69;;;25.75;34.96
56821;BME280;42702;50.178;20.992;2022-07-18T12:48:27;100063.52;;;25.84;35.20
56821;BME280;42702;50.178;20.992;2022-07-18T12:51:00;100063.08;;;25.89;34.96
56821;BME280;42702;50.178;20.992;2022-07-18T12:53:32;100061.56;;;25.91;34.39
56821;BME280;42702;50.178;20.992;2022-07-18T12:56:00;100055.34;;;25.83;34.58
56821;BME280;42702;50.178;20.992;2022-07-18T12:58:29;100053.70;;;25.91;35.51
56821;BME280;42702;50.178;20.992;2022-07-18T13:00:57;100052.93;;;26.04;35.09
56821;BME280;42702;50.178;20.992;2022-07-18T13:03:34;100051.64;;;26.11;34.70
56821;BME280;42702;50.178;20.992;2022-07-18T13:06:03;100045.14;;;26.16;34.88
56821;BME280;42702;50.178;20.992;2022-07-18T13:08:32;100046.45;;;26.21;34.41
56821;BME280;42702;50.178;20.992;2022-07-18T13:11:00;100045.39;;;26.11;33.64
56821;BME280;42702;50.178;20.992;2022-07-18T13:13:28;100041.31;;;25.98;34.33
56821;BME280;42702;50.178;20.992;2022-07-18T13:15:57;100039.66;;;25.96;34.70
56821;BME280;42702;50.178;20.992;2022-07-18T13:18:25;100038.13;;;26.04;34.68
56821;BME280;42702;50.178;20.992;2022-07-18T13:20:54;100039.34;;;26.08;34.55
56821;BME280;42702;50.178;20.992;2022-07-18T13:23:22;100034.89;;;26.08;34.66
56821;BME280;42702;50.178;20.992;2022-07-18T13:25:50;100034.71;;;26.05;34.49
56821;BME280;42702;50.178;20.992;2022-07-18T13:28:19;100028.65;;;26.10;34.98
56821;BME280;42702;50.178;20.992;2022-07-18T13:30:47;100029.59;;;26.13;33.83
56821;BME280;42702;50.178;20.992;2022-07-18T13:33:15;100024.91;;;26.04;34.57
56821;BME280;42702;50.178;20.992;2022-07-18T13:35:43;100026.89;;;25.98;34.48